sensor_id;sensor_type;location;lat;lon;timestamp;P1;durP1;ratioP1;P2;durP2;ratioP2
12476;SDS011;6303;51.504;6.300;2023-06-10T00:02:02;3.60;;;3.40;;
12476;SDS011;6303;51.504;6.300;2023-06-10T00:04:29;3.47;;;3.17;;
12476;SDS011;6303;51.504;6.300;2023-06-10T00:06:56;3.58;;;3.28;;
12476;SDS011;6303;51.504;6.300;2023-06-10T00:09:23;3.60;;;3.30;;
12476;SDS011;6303;51.504;6.300;2023-06-10T00:11:51;3.35;;;3.10;;
12476;SDS011;6303;51.504;6.300;2023-06-10T00:14:19;3.40;;;3.10;;
12476;SDS011;6303;51.504;6.300;2023-06-10T00:16:47;3.45;;;3.20;;
12476;SDS011;6303;51.504;6.300;2023-06-10T00:19:14;3.55;;;3.25;;
12476;SDS011;6303;51.504;6.300;2023-06-10T00:21:43;3.42;;;3.20;;
12476;SDS011;6303;51.504;6.300;2023-06-10T00:24:10;3.53;;;3.30;;
12476;SDS011;6303;51.504;6.300;2023-06-10T00:26:38;3.55;;;3.25;;
12476;SDS011;6303;51.504;6.300;2023-06-10T00:29:06;3.28;;;3.08;;
12476;SDS011;6303;51.504;6.300;2023-06-10T00:31:33;3.50;;;3.30;;
12476;SDS011;6303;51.504;6.300;2023-06-10T00:34:02;3.35;;;3.05;;
12476;SDS011;6303;51.504;6.300;2023-06-10T00:36:30;3.40;;;3.20;;
12476;SDS011;6303;51.504;6.300;2023-06-10T00:38:57;3.42;;;3.15;;
12476;SDS011;6303;51.504;6.300;2023-06-10T00:41:24;3.45;;;3.25;;
12476;SDS011;6303;51.504;6.300;2023-06-10T00:43:52;3.20;;;3.00;;
12476;SDS011;6303;51.504;6.300;2023-06-10T00:46:20;3.40;;;3.20;;
12476;SDS011;6303;51.504;6.300;2023-06-10T00:48:49;3.38;;;3.08;;
12476;SDS011;6303;51.504;6.300;2023-06-10T00:51:18;3.63;;;3.35;;
12476;SDS011;6303;51.504;6.300;2023-06-10T00:53:45;3.40;;;3.20;;
12476;SDS011;6303;51.504;6.300;2023-06-10T00:56:13;3.70;;;3.40;;
12476;SDS011;6303;51.504;6.300;2023-06-10T00:58:40;3.42;;;3.20;;
12476;SDS011;6303;51.504;6.300;2023-06-10T01:01:07;3.00;;;2.80;;
12476;SDS011;6303;51.504;6.300;2023-06-10T01:03:36;3.40;;;3.10;;
12476;SDS011;6303;51.504;6.300;2023-06-10T01:06:06;3.35;;;3.15;;
12476;SDS011;6303;51.504;6.300;2023-06-10T01:08:45;3.50;;;3.20;;
12476;SDS011;6303;51.504;6.300;2023-06-10T01:11:17;3.10;;;2.90;;
12476;SDS011;6303;51.504;6.300;2023-06-10T01:13:47;3.13;;;2.92;;
12476;SDS011;6303;51.504;6.300;2023-06-10T01:16:17;3.15;;;2.95;;
12476;SDS011;6303;51.504;6.300;2023-06-10T01:18:46;3.35;;;3.15;;
12476;SDS011;6303;51.504;6.300;2023-06-10T01:21:17;3.30;;;3.10;;
12476;SDS011;6303;51.504;6.300;2023-06-10T01:23:46;3.40;;;3.10;;
12476;SDS011;6303;51.504;6.300;2023-06-10T01:26:13;3.25;;;3.05;;
12476;SDS011;6303;51.504;6.300;2023-06-10T01:28:44;3.33;;;3.13;;
12476;SDS011;6303;51.504;6.300;2023-06-10T01:31:20;3.13;;;2.92;;
12476;SDS011;6303;51.504;6.300;2023-06-10T01:33:59;3.33;;;3.13;;
12476;SDS011;6303;51.504;6.300;2023-06-10T01:36:28;3.30;;;3.10;;
12476;SDS011;6303;51.504;6.300;2023-06-10T01:38:57;3.30;;;3.10;;
12476;SDS011;6303;51.504;6.300;2023-06-10T01:41:25;3.42;;;3.22;;
12476;SDS011;6303;51.504;6.300;2023-06-10T01:43:53;3.28;;;3.08;;
12476;SDS011;6303;51.504;6.300;2023-06-10T01:46:21;2.92;;;2.72;;
12476;SDS011;6303;51.504;6.300;2023-06-10T01:48:48;3.40;;;3.20;;
12476;SDS011;6303;51.504;6.300;2023-06-10T01:51:15;3.20;;;3.00;;
12476;SDS011;6303;51.504;6.300;2023-06-10T01:53:44;3.28;;;3.00;;
12476;SDS011;6303;51.504;6.300;2023-06-10T01:56:11;3.42;;;3.22;;
12476;SDS011;6303;51.504;6.300;2023-06-10T01:58:42;3.30;;;3.10;;
12476;SDS011;6303;51.504;6.300;2023-06-10T02:01:09;3.30;;;3.10;;
12476;SDS011;6303;51.504;6.300;2023-06-10T02:03:36;3.22;;;3.03;;
12476;SDS011;6303;51.504;6.300;2023-06-10T02:06:04;3.53;;;3.22;;
12476;SDS011;6303;51.504;6.300;2023-06-10T02:08:32;3.10;;;2.90;;
12476;SDS011;6303;51.504;6.300;2023-06-10T02:11:01;3.15;;;2.92;;
12476;SDS011;6303;51.504;6.300;2023-06-10T02:13:28;3.30;;;3.10;;
12476;SDS011;6303;51.504;6.300;2023-06-10T02:15:55;3.30;;;3.10;;
12476;SDS011;6303;51.504;6.300;2023-06-10T02:18:22;3.25;;;3.05;;
12476;SDS011;6303;51.504;6.300;2023-06-10T02:20:49;3.25;;;3.05;;
12476;SDS011;6303;51.504;6.300;2023-06-10T02:23:16;3.30;;;3.10;;
12476;SDS011;6303;51.504;6.300;2023-06-10T02:25:44;3.38;;;3.17;;
12476;SDS011;6303;51.504;6.300;2023-06-10T02:28:14;3.58;;;3.28;;
12476;SDS011;6303;51.504;6.300;2023-06-10T02:30:41;3.78;;;3.47;;
12476;SDS011;6303;51.504;6.300;2023-06-10T02:33:08;3.63;;;3.40;;
12476;SDS011;6303;51.504;6.300;2023-06-10T02:35:37;3.35;;;3.15;;
12476;SDS011;6303;51.504;6.300;2023-06-10T02:38:04;3.30;;;3.10;;
12476;SDS011;6303;51.504;6.300;2023-06-10T02:40:33;3.28;;;3.08;;
12476;SDS011;6303;51.504;6.300;2023-06-10T02:43:00;3.38;;;3.17;;
12476;SDS011;6303;51.504;6.300;2023-06-10T02:45:29;3.45;;;3.25;;
12476;SDS011;6303;51.504;6.300;2023-06-10T02:47:58;3.53;;;3.33;;
12476;SDS011;6303;51.504;6.300;2023-06-10T02:50:25;3.63;;;3.40;;
12476;SDS011;6303;51.504;6.300;2023-06-10T02:53:00;3.17;;;2.97;;
12476;SDS011;6303;51.504;6.300;2023-06-10T02:55:28;3.70;;;3.50;;
12476;SDS011;6303;51.504;6.300;2023-06-10T02:58:00;6.00;;;3.50;;
12476;SDS011;6303;51.504;6.300;2023-06-10T03:00:30;8.18;;;4.78;;
12476;SDS011;6303;51.504;6.300;2023-06-10T03:02:57;4.60;;;3.85;;
12476;SDS011;6303;51.504;6.300;2023-06-10T03:05:32;5.57;;;3.92;;
12476;SDS011;6303;51.504;6.300;2023-06-10T03:08:02;5.47;;;4.20;;
12476;SDS011;6303;51.504;6.300;2023-06-10T03:10:32;4.28;;;3.78;;
12476;SDS011;6303;51.504;6.300;2023-06-10T03:13:01;5.20;;;4.60;;
12476;SDS011;6303;51.504;6.300;2023-06-10T03:15:30;4.95;;;4.55;;
12476;SDS011;6303;51.504;6.300;2023-06-10T03:17:59;5.30;;;4.68;;
12476;SDS011;6303;51.504;6.300;2023-06-10T03:20:28;5.10;;;4.70;;
12476;SDS011;6303;51.504;6.300;2023-06-10T03:22:55;5.18;;;4.68;;
12476;SDS011;6303;51.504;6.300;2023-06-10T03:25:22;5.18;;;4.78;;
12476;SDS011;6303;51.504;6.300;2023-06-10T03:27:53;5.28;;;4.88;;
12476;SDS011;6303;51.504;6.300;2023-06-10T03:30:20;5.43;;;5.03;;
12476;SDS011;6303;51.504;6.300;2023-06-10T03:32:48;5.65;;;5.25;;
12476;SDS011;6303;51.504;6.300;2023-06-10T03:35:18;6.00;;;5.50;;
12476;SDS011;6303;51.504;6.300;2023-06-10T03:37:45;6.05;;;5.55;;
12476;SDS011;6303;51.504;6.300;2023-06-10T03:40:12;5.75;;;5.35;;
12476;SDS011;6303;51.504;6.300;2023-06-10T03:42:43;6.00;;;5.50;;
12476;SDS011;6303;51.504;6.300;2023-06-10T03:45:13;6.32;;;5.72;;
12476;SDS011;6303;51.504;6.300;2023-06-10T03:47:40;6.10;;;5.60;;
12476;SDS011;6303;51.504;6.300;2023-06-10T03:50:13;6.70;;;6.10;;
12476;SDS011;6303;51.504;6.300;2023-06-10T03:52:43;6.57;;;6.07;;
12476;SDS011;6303;51.504;6.300;2023-06-10T03:55:11;6.82;;;6.20;;
12476;SDS011;6303;51.504;6.300;2023-06-10T03:57:42;6.82;;;6.25;;
12476;SDS011;6303;51.504;6.300;2023-06-10T04:00:10;7.03;;;6.43;;
12476;SDS011;6303;51.504;6.300;2023-06-10T04:02:41;7.18;;;6.45;;
12476;SDS011;6303;51.504;6.300;2023-06-10T04:05:16;6.75;;;6.25;;
12476;SDS011;6303;51.504;6.300;2023-06-10T04:07:45;7.00;;;6.50;;
12476;SDS011;6303;51.504;6.300;2023-06-10T04:10:14;7.38;;;6.78;;
12476;SDS011;6303;51.504;6.300;2023-06-10T04:12:41;7.57;;;6.97;;
12476;SDS011;6303;51.504;6.300;2023-06-10T04:15:09;7.55;;;6.82;;
12476;SDS011;6303;51.504;6.300;2023-06-10T04:17:37;7.50;;;6.90;;
12476;SDS011;6303;51.504;6.300;2023-06-10T04:20:04;8.20;;;7.40;;
12476;SDS011;6303;51.504;6.300;2023-06-10T04:22:36;7.95;;;7.32;;
12476;SDS011;6303;51.504;6.300;2023-06-10T04:25:03;7.63;;;7.03;;
12476;SDS011;6303;51.504;6.300;2023-06-10T04:27:33;7.55;;;6.95;;
12476;SDS011;6303;51.504;6.300;2023-06-10T04:30:00;8.27;;;7.57;;
12476;SDS011;6303;51.504;6.300;2023-06-10T04:32:28;8.30;;;7.68;;
12476;SDS011;6303;51.504;6.300;2023-06-10T04:34:55;8.75;;;7.95;;
12476;SDS011;6303;51.504;6.300;2023-06-10T04:37:23;8.43;;;7.68;;
12476;SDS011;6303;51.504;6.300;2023-06-10T04:39:51;8.73;;;8.02;;
12476;SDS011;6303;51.504;6.300;2023-06-10T04:42:18;8.63;;;7.85;;
12476;SDS011;6303;51.504;6.300;2023-06-10T04:44:46;7.85;;;7.15;;
12476;SDS011;6303;51.504;6.300;2023-06-10T04:47:13;8.45;;;7.75;;
12476;SDS011;6303;51.504;6.300;2023-06-10T04:49:44;8.60;;;7.90;;
12476;SDS011;6303;51.504;6.300;2023-06-10T04:52:11;8.40;;;7.70;;
12476;SDS011;6303;51.504;6.300;2023-06-10T04:54:40;8.18;;;7.50;;
12476;SDS011;6303;51.504;6.300;2023-06-10T04:57:08;8.63;;;7.93;;
12476;SDS011;6303;51.504;6.300;2023-06-10T04:59:36;8.40;;;7.70;;
12476;SDS011;6303;51.504;6.300;2023-06-10T05:02:04;8.43;;;7.72;;
12476;SDS011;6303;51.504;6.300;2023-06-10T05:04:31;9.10;;;8.27;;
12476;SDS011;6303;51.504;6.300;2023-06-10T05:06:58;8.30;;;7.60;;
12476;SDS011;6303;51.504;6.300;2023-06-10T05:09:25;8.38;;;7.57;;
12476;SDS011;6303;51.504;6.300;2023-06-10T05:11:52;8.15;;;7.55;;
12476;SDS011;6303;51.504;6.300;2023-06-10T05:14:21;8.27;;;7.57;;
12476;SDS011;6303;51.504;6.300;2023-06-10T05:16:48;8.55;;;7.85;;
12476;SDS011;6303;51.504;6.300;2023-06-10T05:19:16;8.13;;;7.43;;
12476;SDS011;6303;51.504;6.300;2023-06-10T05:21:43;8.93;;;8.13;;
12476;SDS011;6303;51.504;6.300;2023-06-10T05:24:11;9.13;;;8.32;;
12476;SDS011;6303;51.504;6.300;2023-06-10T05:26:38;8.52;;;7.82;;
12476;SDS011;6303;51.504;6.300;2023-06-10T05:29:06;8.38;;;7.68;;
12476;SDS011;6303;51.504;6.300;2023-06-10T05:31:35;8.32;;;7.63;;
12476;SDS011;6303;51.504;6.300;2023-06-10T05:34:02;8.18;;;7.47;;
12476;SDS011;6303;51.504;6.300;2023-06-10T05:36:29;8.93;;;7.90;;
12476;SDS011;6303;51.504;6.300;2023-06-10T05:38:57;8.25;;;7.57;;
12476;SDS011;6303;51.504;6.300;2023-06-10T05:41:24;8.70;;;8.00;;
12476;SDS011;6303;51.504;6.300;2023-06-10T05:43:52;8.13;;;7.32;;
12476;SDS011;6303;51.504;6.300;2023-06-10T05:46:19;9.15;;;8.02;;
12476;SDS011;6303;51.504;6.300;2023-06-10T05:48:47;8.10;;;7.35;;
12476;SDS011;6303;51.504;6.300;2023-06-10T05:51:15;8.80;;;7.90;;
12476;SDS011;6303;51.504;6.300;2023-06-10T05:53:42;8.52;;;7.82;;
12476;SDS011;6303;51.504;6.300;2023-06-10T05:56:11;8.32;;;7.53;;
12476;SDS011;6303;51.504;6.300;2023-06-10T05:58:38;8.23;;;7.43;;
12476;SDS011;6303;51.504;6.300;2023-06-10T06:01:05;8.32;;;7.32;;
12476;SDS011;6303;51.504;6.300;2023-06-10T06:03:32;7.80;;;7.10;;
12476;SDS011;6303;51.504;6.300;2023-06-10T06:06:01;7.82;;;7.10;;
12476;SDS011;6303;51.504;6.300;2023-06-10T06:11:03;8.02;;;7.22;;
12476;SDS011;6303;51.504;6.300;2023-06-10T06:13:30;10.63;;;6.93;;
12476;SDS011;6303;51.504;6.300;2023-06-10T06:15:58;7.65;;;6.90;;
12476;SDS011;6303;51.504;6.300;2023-06-10T06:18:25;9.80;;;6.63;;
12476;SDS011;6303;51.504;6.300;2023-06-10T06:20:52;7.20;;;6.50;;
12476;SDS011;6303;51.504;6.300;2023-06-10T06:23:20;7.53;;;6.82;;
12476;SDS011;6303;51.504;6.300;2023-06-10T06:25:47;10.48;;;6.97;;
12476;SDS011;6303;51.504;6.300;2023-06-10T06:28:14;11.05;;;6.68;;
12476;SDS011;6303;51.504;6.300;2023-06-10T06:30:41;7.22;;;6.53;;
12476;SDS011;6303;51.504;6.300;2023-06-10T06:33:08;8.23;;;7.07;;
12476;SDS011;6303;51.504;6.300;2023-06-10T06:35:35;7.50;;;6.80;;
12476;SDS011;6303;51.504;6.300;2023-06-10T06:38:04;9.25;;;6.90;;
12476;SDS011;6303;51.504;6.300;2023-06-10T06:40:33;7.60;;;6.78;;
12476;SDS011;6303;51.504;6.300;2023-06-10T06:43:00;9.48;;;6.72;;
12476;SDS011;6303;51.504;6.300;2023-06-10T06:45:36;8.43;;;7.15;;
12476;SDS011;6303;51.504;6.300;2023-06-10T06:48:04;7.78;;;6.80;;
12476;SDS011;6303;51.504;6.300;2023-06-10T06:50:32;7.80;;;7.00;;
12476;SDS011;6303;51.504;6.300;2023-06-10T06:52:59;8.50;;;7.10;;
12476;SDS011;6303;51.504;6.300;2023-06-10T06:55:26;6.97;;;6.38;;
12476;SDS011;6303;51.504;6.300;2023-06-10T06:57:54;7.88;;;6.63;;
12476;SDS011;6303;51.504;6.300;2023-06-10T07:00:21;7.68;;;6.45;;
12476;SDS011;6303;51.504;6.300;2023-06-10T07:02:49;7.40;;;6.70;;
12476;SDS011;6303;51.504;6.300;2023-06-10T07:05:16;8.35;;;6.32;;
12476;SDS011;6303;51.504;6.300;2023-06-10T07:07:43;8.13;;;6.10;;
12476;SDS011;6303;51.504;6.300;2023-06-10T07:10:10;8.75;;;6.30;;
12476;SDS011;6303;51.504;6.300;2023-06-10T07:12:37;7.30;;;6.25;;
12476;SDS011;6303;51.504;6.300;2023-06-10T07:15:06;9.77;;;6.30;;
12476;SDS011;6303;51.504;6.300;2023-06-10T07:17:34;8.13;;;6.15;;
12476;SDS011;6303;51.504;6.300;2023-06-10T07:20:01;9.52;;;6.45;;
12476;SDS011;6303;51.504;6.300;2023-06-10T07:22:28;7.10;;;6.35;;
12476;SDS011;6303;51.504;6.300;2023-06-10T07:24:55;9.52;;;5.97;;
12476;SDS011;6303;51.504;6.300;2023-06-10T07:27:22;12.48;;;6.75;;
12476;SDS011;6303;51.504;6.300;2023-06-10T07:29:50;13.82;;;8.00;;
12476;SDS011;6303;51.504;6.300;2023-06-10T07:32:18;17.20;;;7.75;;
12476;SDS011;6303;51.504;6.300;2023-06-10T07:34:47;10.00;;;6.78;;
12476;SDS011;6303;51.504;6.300;2023-06-10T07:37:14;10.32;;;6.78;;
12476;SDS011;6303;51.504;6.300;2023-06-10T07:39:41;9.77;;;6.10;;
12476;SDS011;6303;51.504;6.300;2023-06-10T07:42:08;7.55;;;6.43;;
12476;SDS011;6303;51.504;6.300;2023-06-10T07:44:36;8.00;;;6.00;;
12476;SDS011;6303;51.504;6.300;2023-06-10T07:47:03;6.38;;;5.78;;
12476;SDS011;6303;51.504;6.300;2023-06-10T07:49:32;8.57;;;6.13;;
12476;SDS011;6303;51.504;6.300;2023-06-10T07:51:59;7.68;;;6.22;;
12476;SDS011;6303;51.504;6.300;2023-06-10T07:54:26;7.53;;;5.57;;
12476;SDS011;6303;51.504;6.300;2023-06-10T07:56:53;7.80;;;5.97;;
12476;SDS011;6303;51.504;6.300;2023-06-10T07:59:20;7.35;;;5.88;;
12476;SDS011;6303;51.504;6.300;2023-06-10T08:01:47;7.35;;;5.80;;
12476;SDS011;6303;51.504;6.300;2023-06-10T08:04:14;6.38;;;5.85;;
12476;SDS011;6303;51.504;6.300;2023-06-10T08:06:42;6.28;;;5.57;;
12476;SDS011;6303;51.504;6.300;2023-06-10T08:09:09;7.82;;;5.78;;
12476;SDS011;6303;51.504;6.300;2023-06-10T08:11:36;7.22;;;5.70;;
12476;SDS011;6303;51.504;6.300;2023-06-10T08:14:03;6.00;;;5.43;;
12476;SDS011;6303;51.504;6.300;2023-06-10T08:16:30;6.13;;;5.57;;
12476;SDS011;6303;51.504;6.300;2023-06-10T08:18:57;6.32;;;5.40;;
12476;SDS011;6303;51.504;6.300;2023-06-10T08:21:24;6.47;;;5.80;;
12476;SDS011;6303;51.504;6.300;2023-06-10T08:23:54;6.03;;;5.43;;
12476;SDS011;6303;51.504;6.300;2023-06-10T08:26:21;7.53;;;5.70;;
12476;SDS011;6303;51.504;6.300;2023-06-10T08:28:48;6.32;;;5.45;;
12476;SDS011;6303;51.504;6.300;2023-06-10T08:31:16;6.10;;;5.50;;
12476;SDS011;6303;51.504;6.300;2023-06-10T08:33:43;7.88;;;5.40;;
12476;SDS011;6303;51.504;6.300;2023-06-10T08:36:10;6.43;;;5.50;;
12476;SDS011;6303;51.504;6.300;2023-06-10T08:38:37;6.30;;;5.70;;
12476;SDS011;6303;51.504;6.300;2023-06-10T08:41:06;6.85;;;5.57;;
12476;SDS011;6303;51.504;6.300;2023-06-10T08:43:34;7.28;;;5.63;;
12476;SDS011;6303;51.504;6.300;2023-06-10T08:46:03;6.95;;;5.53;;
12476;SDS011;6303;51.504;6.300;2023-06-10T08:48:34;7.78;;;5.60;;
12476;SDS011;6303;51.504;6.300;2023-06-10T08:51:05;7.65;;;5.65;;
12476;SDS011;6303;51.504;6.300;2023-06-10T08:53:33;6.13;;;5.38;;
12476;SDS011;6303;51.504;6.300;2023-06-10T08:56:05;6.57;;;5.88;;
12476;SDS011;6303;51.504;6.300;2023-06-10T08:58:32;6.93;;;5.30;;
12476;SDS011;6303;51.504;6.300;2023-06-10T09:01:05;6.03;;;5.53;;
12476;SDS011;6303;51.504;6.300;2023-06-10T09:03:32;6.43;;;5.82;;
12476;SDS011;6303;51.504;6.300;2023-06-10T09:06:00;5.82;;;5.25;;
12476;SDS011;6303;51.504;6.300;2023-06-10T09:08:28;6.00;;;5.43;;
12476;SDS011;6303;51.504;6.300;2023-06-10T09:10:55;6.57;;;5.82;;
12476;SDS011;6303;51.504;6.300;2023-06-10T09:13:24;6.00;;;5.45;;
12476;SDS011;6303;51.504;6.300;2023-06-10T09:15:51;5.88;;;5.28;;
12476;SDS011;6303;51.504;6.300;2023-06-10T09:18:18;6.28;;;5.68;;
12476;SDS011;6303;51.504;6.300;2023-06-10T09:20:45;5.63;;;5.22;;
12476;SDS011;6303;51.504;6.300;2023-06-10T09:23:12;5.70;;;5.20;;
12476;SDS011;6303;51.504;6.300;2023-06-10T09:25:41;6.53;;;5.50;;
12476;SDS011;6303;51.504;6.300;2023-06-10T09:28:12;7.72;;;5.93;;
12476;SDS011;6303;51.504;6.300;2023-06-10T09:30:41;6.97;;;5.47;;
12476;SDS011;6303;51.504;6.300;2023-06-10T09:33:12;6.93;;;5.70;;
12476;SDS011;6303;51.504;6.300;2023-06-10T09:35:44;6.15;;;5.43;;
12476;SDS011;6303;51.504;6.300;2023-06-10T09:38:13;6.32;;;5.72;;
12476;SDS011;6303;51.504;6.300;2023-06-10T09:40:48;6.10;;;5.53;;
12476;SDS011;6303;51.504;6.300;2023-06-10T09:43:16;6.03;;;5.45;;
12476;SDS011;6303;51.504;6.300;2023-06-10T09:45:46;5.93;;;5.43;;
12476;SDS011;6303;51.504;6.300;2023-06-10T09:48:14;6.03;;;5.30;;
12476;SDS011;6303;51.504;6.300;2023-06-10T09:50:41;6.40;;;5.68;;
12476;SDS011;6303;51.504;6.300;2023-06-10T09:53:09;5.88;;;5.38;;
12476;SDS011;6303;51.504;6.300;2023-06-10T09:55:37;6.35;;;5.75;;
12476;SDS011;6303;51.504;6.300;2023-06-10T09:58:04;5.93;;;5.43;;
12476;SDS011;6303;51.504;6.300;2023-06-10T10:00:31;6.68;;;5.90;;
12476;SDS011;6303;51.504;6.300;2023-06-10T10:03:01;6.30;;;5.70;;
12476;SDS011;6303;51.504;6.300;2023-06-10T10:05:28;6.57;;;5.95;;
12476;SDS011;6303;51.504;6.300;2023-06-10T10:07:56;6.45;;;5.80;;
12476;SDS011;6303;51.504;6.300;2023-06-10T10:10:23;6.22;;;5.63;;
12476;SDS011;6303;51.504;6.300;2023-06-10T10:12:52;10.30;;;5.95;;
12476;SDS011;6303;51.504;6.300;2023-06-10T10:15:22;6.32;;;5.78;;
12476;SDS011;6303;51.504;6.300;2023-06-10T10:17:52;8.05;;;6.45;;
12476;SDS011;6303;51.504;6.300;2023-06-10T10:20:26;6.75;;;6.00;;
12476;SDS011;6303;51.504;6.300;2023-06-10T10:22:56;6.95;;;6.07;;
12476;SDS011;6303;51.504;6.300;2023-06-10T10:25:25;6.93;;;6.13;;
12476;SDS011;6303;51.504;6.300;2023-06-10T10:27:55;7.03;;;5.65;;
12476;SDS011;6303;51.504;6.300;2023-06-10T10:30:25;6.63;;;6.03;;
12476;SDS011;6303;51.504;6.300;2023-06-10T10:32:56;7.00;;;6.30;;
12476;SDS011;6303;51.504;6.300;2023-06-10T10:35:26;8.27;;;6.28;;
12476;SDS011;6303;51.504;6.300;2023-06-10T10:37:54;6.45;;;5.82;;
12476;SDS011;6303;51.504;6.300;2023-06-10T10:40:21;7.07;;;6.47;;
12476;SDS011;6303;51.504;6.300;2023-06-10T10:42:50;7.13;;;6.28;;
12476;SDS011;6303;51.504;6.300;2023-06-10T10:45:18;6.13;;;5.63;;
12476;SDS011;6303;51.504;6.300;2023-06-10T10:47:45;6.82;;;6.13;;
12476;SDS011;6303;51.504;6.300;2023-06-10T10:50:18;6.68;;;6.03;;
12476;SDS011;6303;51.504;6.300;2023-06-10T10:52:50;7.03;;;6.43;;
12476;SDS011;6303;51.504;6.300;2023-06-10T10:55:19;7.88;;;6.47;;
12476;SDS011;6303;51.504;6.300;2023-06-10T10:57:53;7.85;;;6.47;;
12476;SDS011;6303;51.504;6.300;2023-06-10T11:00:26;7.10;;;6.30;;
12476;SDS011;6303;51.504;6.300;2023-06-10T11:02:57;6.35;;;5.80;;
12476;SDS011;6303;51.504;6.300;2023-06-10T11:05:35;6.53;;;5.93;;
12476;SDS011;6303;51.504;6.300;2023-06-10T11:08:06;6.60;;;6.00;;
12476;SDS011;6303;51.504;6.300;2023-06-10T11:10:34;6.93;;;6.38;;
12476;SDS011;6303;51.504;6.300;2023-06-10T11:13:05;6.72;;;6.13;;
12476;SDS011;6303;51.504;6.300;2023-06-10T11:15:37;7.10;;;6.50;;
12476;SDS011;6303;51.504;6.300;2023-06-10T11:18:07;6.90;;;6.32;;
12476;SDS011;6303;51.504;6.300;2023-06-10T11:20:44;7.20;;;6.50;;
12476;SDS011;6303;51.504;6.300;2023-06-10T11:23:40;6.85;;;6.35;;
12476;SDS011;6303;51.504;6.300;2023-06-10T11:26:09;6.53;;;5.93;;
12476;SDS011;6303;51.504;6.300;2023-06-10T11:29:03;7.53;;;6.93;;
12476;SDS011;6303;51.504;6.300;2023-06-10T11:31:43;6.85;;;6.30;;
12476;SDS011;6303;51.504;6.300;2023-06-10T11:34:12;7.32;;;6.20;;
12476;SDS011;6303;51.504;6.300;2023-06-10T11:36:40;7.88;;;6.53;;
12476;SDS011;6303;51.504;6.300;2023-06-10T11:39:11;7.38;;;6.63;;
12476;SDS011;6303;51.504;6.300;2023-06-10T11:41:39;7.03;;;6.32;;
12476;SDS011;6303;51.504;6.300;2023-06-10T11:44:09;7.20;;;6.60;;
12476;SDS011;6303;51.504;6.300;2023-06-10T11:46:38;7.88;;;7.07;;
12476;SDS011;6303;51.504;6.300;2023-06-10T11:49:07;9.10;;;6.65;;
12476;SDS011;6303;51.504;6.300;2023-06-10T11:51:35;7.05;;;6.30;;
12476;SDS011;6303;51.504;6.300;2023-06-10T11:54:06;7.55;;;6.78;;
12476;SDS011;6303;51.504;6.300;2023-06-10T11:56:36;7.93;;;6.55;;
12476;SDS011;6303;51.504;6.300;2023-06-10T11:59:04;7.65;;;6.80;;
12476;SDS011;6303;51.504;6.300;2023-06-10T12:01:33;7.65;;;6.90;;
12476;SDS011;6303;51.504;6.300;2023-06-10T12:04:02;7.28;;;6.57;;
12476;SDS011;6303;51.504;6.300;2023-06-10T12:06:43;7.25;;;6.65;;
12476;SDS011;6303;51.504;6.300;2023-06-10T12:11:57;7.72;;;7.13;;
12476;SDS011;6303;51.504;6.300;2023-06-10T12:17:20;7.72;;;6.93;;
12476;SDS011;6303;51.504;6.300;2023-06-10T12:19:48;7.60;;;6.80;;
12476;SDS011;6303;51.504;6.300;2023-06-10T12:22:15;7.43;;;6.72;;
12476;SDS011;6303;51.504;6.300;2023-06-10T12:24:44;7.63;;;6.30;;
12476;SDS011;6303;51.504;6.300;2023-06-10T12:27:13;7.70;;;7.00;;
12476;SDS011;6303;51.504;6.300;2023-06-10T12:29:50;6.75;;;6.25;;
12476;SDS011;6303;51.504;6.300;2023-06-10T12:32:20;7.10;;;6.50;;
12476;SDS011;6303;51.504;6.300;2023-06-10T12:34:50;6.82;;;6.22;;
12476;SDS011;6303;51.504;6.300;2023-06-10T12:37:29;7.68;;;6.85;;
12476;SDS011;6303;51.504;6.300;2023-06-10T12:40:00;7.95;;;6.20;;
12476;SDS011;6303;51.504;6.300;2023-06-10T12:42:29;6.88;;;6.30;;
12476;SDS011;6303;51.504;6.300;2023-06-10T12:44:58;7.22;;;6.53;;
12476;SDS011;6303;51.504;6.300;2023-06-10T12:47:29;7.38;;;6.78;;
12476;SDS011;6303;51.504;6.300;2023-06-10T12:49:58;7.35;;;6.72;;
12476;SDS011;6303;51.504;6.300;2023-06-10T12:52:25;7.90;;;6.72;;
12476;SDS011;6303;51.504;6.300;2023-06-10T12:54:52;10.15;;;6.88;;
12476;SDS011;6303;51.504;6.300;2023-06-10T12:57:20;7.68;;;6.97;;
12476;SDS011;6303;51.504;6.300;2023-06-10T12:59:49;8.40;;;7.60;;
12476;SDS011;6303;51.504;6.300;2023-06-10T13:02:17;7.50;;;6.80;;
12476;SDS011;6303;51.504;6.300;2023-06-10T13:04:46;7.45;;;6.75;;
12476;SDS011;6303;51.504;6.300;2023-06-10T13:07:13;7.40;;;6.63;;
12476;SDS011;6303;51.504;6.300;2023-06-10T13:09:40;7.25;;;6.60;;
12476;SDS011;6303;51.504;6.300;2023-06-10T13:12:08;7.32;;;6.63;;
12476;SDS011;6303;51.504;6.300;2023-06-10T13:14:35;7.90;;;7.10;;
12476;SDS011;6303;51.504;6.300;2023-06-10T13:17:04;6.95;;;6.35;;
12476;SDS011;6303;51.504;6.300;2023-06-10T13:19:32;7.10;;;6.50;;
12476;SDS011;6303;51.504;6.300;2023-06-10T13:21:59;7.78;;;6.97;;
12476;SDS011;6303;51.504;6.300;2023-06-10T13:24:26;7.25;;;6.60;;
12476;SDS011;6303;51.504;6.300;2023-06-10T13:26:53;7.15;;;6.55;;
12476;SDS011;6303;51.504;6.300;2023-06-10T13:29:21;7.60;;;6.90;;
12476;SDS011;6303;51.504;6.300;2023-06-10T13:31:48;7.53;;;6.82;;
12476;SDS011;6303;51.504;6.300;2023-06-10T13:34:16;8.07;;;7.28;;
12476;SDS011;6303;51.504;6.300;2023-06-10T13:36:43;7.22;;;6.53;;
12476;SDS011;6303;51.504;6.300;2023-06-10T13:39:10;7.43;;;6.72;;
12476;SDS011;6303;51.504;6.300;2023-06-10T13:41:39;7.28;;;6.47;;
12476;SDS011;6303;51.504;6.300;2023-06-10T13:44:07;7.95;;;7.15;;
12476;SDS011;6303;51.504;6.300;2023-06-10T13:46:34;7.30;;;6.70;;
12476;SDS011;6303;51.504;6.300;2023-06-10T13:49:01;7.68;;;6.82;;
12476;SDS011;6303;51.504;6.300;2023-06-10T13:51:29;7.53;;;6.93;;
12476;SDS011;6303;51.504;6.300;2023-06-10T13:53:56;7.30;;;6.70;;
12476;SDS011;6303;51.504;6.300;2023-06-10T13:56:23;7.68;;;6.97;;
12476;SDS011;6303;51.504;6.300;2023-06-10T13:58:51;7.43;;;6.72;;
12476;SDS011;6303;51.504;6.300;2023-06-10T14:01:18;6.97;;;6.38;;
12476;SDS011;6303;51.504;6.300;2023-06-10T14:03:45;7.38;;;6.88;;
12476;SDS011;6303;51.504;6.300;2023-06-10T14:06:12;7.22;;;6.63;;
12476;SDS011;6303;51.504;6.300;2023-06-10T14:08:44;7.40;;;6.32;;
12476;SDS011;6303;51.504;6.300;2023-06-10T14:11:11;7.88;;;7.18;;
12476;SDS011;6303;51.504;6.300;2023-06-10T14:13:39;7.75;;;6.93;;
12476;SDS011;6303;51.504;6.300;2023-06-10T14:16:06;7.78;;;7.03;;
12476;SDS011;6303;51.504;6.300;2023-06-10T14:18:33;7.25;;;6.65;;
12476;SDS011;6303;51.504;6.300;2023-06-10T14:21:00;7.40;;;6.72;;
12476;SDS011;6303;51.504;6.300;2023-06-10T14:23:27;8.25;;;7.45;;
12476;SDS011;6303;51.504;6.300;2023-06-10T14:25:55;7.55;;;6.82;;
12476;SDS011;6303;51.504;6.300;2023-06-10T14:28:22;7.47;;;6.68;;
12476;SDS011;6303;51.504;6.300;2023-06-10T14:30:51;7.32;;;6.72;;
12476;SDS011;6303;51.504;6.300;2023-06-10T14:33:18;8.48;;;7.13;;
12476;SDS011;6303;51.504;6.300;2023-06-10T14:35:45;9.52;;;7.43;;
12476;SDS011;6303;51.504;6.300;2023-06-10T14:38:12;7.80;;;7.07;;
12476;SDS011;6303;51.504;6.300;2023-06-10T14:40:39;7.60;;;7.00;;
12476;SDS011;6303;51.504;6.300;2023-06-10T14:43:07;10.85;;;7.22;;
12476;SDS011;6303;51.504;6.300;2023-06-10T14:45:35;7.88;;;6.90;;
12476;SDS011;6303;51.504;6.300;2023-06-10T14:48:02;7.78;;;7.00;;
12476;SDS011;6303;51.504;6.300;2023-06-10T14:50:30;7.50;;;6.80;;
12476;SDS011;6303;51.504;6.300;2023-06-10T14:52:57;7.90;;;7.10;;
12476;SDS011;6303;51.504;6.300;2023-06-10T14:55:24;7.30;;;6.70;;
12476;SDS011;6303;51.504;6.300;2023-06-10T14:57:51;7.43;;;6.82;;
12476;SDS011;6303;51.504;6.300;2023-06-10T15:00:19;7.18;;;6.60;;
12476;SDS011;6303;51.504;6.300;2023-06-10T15:02:48;7.60;;;6.97;;
12476;SDS011;6303;51.504;6.300;2023-06-10T15:05:15;8.07;;;7.20;;
12476;SDS011;6303;51.504;6.300;2023-06-10T15:07:44;7.57;;;6.90;;
12476;SDS011;6303;51.504;6.300;2023-06-10T15:10:11;8.02;;;7.10;;
12476;SDS011;6303;51.504;6.300;2023-06-10T15:12:38;7.65;;;7.03;;
12476;SDS011;6303;51.504;6.300;2023-06-10T15:15:06;7.50;;;6.90;;
12476;SDS011;6303;51.504;6.300;2023-06-10T15:17:34;8.35;;;7.45;;